createdAt,value
2023-03-07T00:00:30.620Z,1.54
2023-03-07T00:03:36.732Z,1.57
2023-03-07T00:06:42.192Z,1.49
2023-03-07T00:09:45.725Z,1.51
2023-03-07T00:12:49.774Z,1.45
2023-03-07T00:15:53.379Z,1.47
2023-03-07T00:18:57.240Z,1.46
2023-03-07T00:22:02.205Z,1.43
2023-03-07T00:25:06.891Z,1.41
2023-03-07T00:28:10.415Z,1.41
2023-03-07T00:31:14.654Z,1.41
2023-03-07T00:34:18.277Z,1.36
2023-03-07T00:37:23.357Z,1.39
2023-03-07T00:40:27.087Z,1.36
2023-03-07T00:43:32.076Z,1.37
2023-03-07T00:46:35.773Z,1.32
2023-03-07T00:49:39.400Z,1.34
2023-03-07T00:52:44.429Z,1.27
2023-03-07T00:55:57.330Z,1.26
2023-03-07T00:59:01.064Z,1.19
2023-03-07T01:02:04.664Z,1.23
2023-03-07T01:05:09.064Z,1.23
2023-03-07T01:08:15.083Z,1.19
2023-03-07T01:11:18.887Z,1.18
2023-03-07T01:14:22.994Z,1.15
2023-03-07T01:17:26.603Z,1.14
2023-03-07T01:20:33.217Z,1.16
2023-03-07T01:23:38.369Z,1.21
2023-03-07T01:26:42.247Z,1.22
2023-03-07T01:29:45.931Z,1.23
2023-03-07T01:32:55.151Z,1.18
2023-03-07T01:35:58.803Z,1.18
2023-03-07T01:39:07.927Z,1.23
2023-03-07T01:42:11.819Z,1.24
2023-03-07T01:46:19.926Z,1.22
2023-03-07T01:49:30.595Z,1.25
2023-03-07T01:52:39.461Z,1.23
2023-03-07T01:55:44.543Z,1.27
2023-03-07T01:58:49.023Z,1.26
2023-03-07T02:01:53.741Z,1.32
2023-03-07T02:05:05.053Z,1.34
2023-03-07T02:08:13.478Z,1.31
2023-03-07T02:11:19.309Z,1.37
2023-03-07T02:14:22.914Z,1.39
2023-03-07T02:17:27.955Z,1.42
2023-03-07T02:20:44.654Z,1.42
2023-03-07T02:23:59.372Z,1.47
2023-03-07T02:27:06.074Z,1.53
2023-03-07T02:30:12.003Z,1.56
2023-03-07T02:33:15.661Z,1.61
2023-03-07T02:36:25.016Z,1.62
2023-03-07T02:39:31.113Z,1.61
2023-03-07T02:42:42.758Z,1.66
2023-03-07T02:45:46.380Z,1.65
2023-03-07T02:48:50.270Z,1.68
2023-03-07T02:51:57.702Z,1.70
2023-03-07T02:55:01.394Z,1.69
2023-03-07T02:58:06.726Z,1.76
2023-03-07T03:01:10.383Z,1.74
2023-03-07T03:04:13.941Z,1.73
2023-03-07T03:07:17.699Z,1.75
2023-03-07T03:10:21.553Z,1.75
2023-03-07T03:13:26.598Z,1.73
2023-03-07T03:16:30.283Z,1.73
2023-03-07T03:19:34.034Z,1.72
2023-03-07T03:22:37.626Z,1.73
2023-03-07T03:25:41.222Z,1.73
2023-03-07T03:28:46.210Z,1.70
2023-03-07T03:31:50.830Z,1.70
2023-03-07T03:34:54.439Z,1.63
2023-03-07T03:37:58.378Z,1.58
2023-03-07T03:41:06.830Z,1.57
2023-03-07T03:44:12.121Z,1.55
2023-03-07T03:47:15.787Z,1.54
2023-03-07T03:50:19.612Z,1.53
2023-03-07T03:53:23.225Z,1.52
2023-03-07T03:56:29.704Z,1.50
2023-03-07T03:59:35.044Z,1.45
2023-03-07T04:02:38.820Z,1.46
2023-03-07T04:05:42.510Z,1.41
2023-03-07T04:08:47.574Z,1.36
2023-03-07T04:11:51.193Z,1.34
2023-03-07T04:14:56.182Z,1.33
2023-03-07T04:17:59.869Z,1.30
2023-03-07T04:21:05.745Z,1.27
2023-03-07T04:24:09.912Z,1.26
2023-03-07T04:27:13.581Z,1.35
2023-03-07T04:30:18.721Z,1.33
2023-03-07T04:33:23.008Z,1.31
2023-03-07T04:36:27.086Z,1.38
2023-03-07T04:39:30.745Z,1.40
2023-03-07T04:42:34.374Z,1.41
2023-03-07T04:45:39.508Z,1.37
2023-03-07T04:48:43.194Z,1.37
2023-03-07T04:51:46.854Z,1.33
2023-03-07T04:54:50.450Z,1.31
2023-03-07T04:57:54.101Z,1.30
2023-03-07T05:00:59.596Z,1.37
2023-03-07T05:04:03.295Z,1.43
2023-03-07T05:07:07.220Z,1.39
2023-03-07T05:10:13.070Z,1.40
2023-03-07T05:13:16.700Z,1.36
2023-03-07T05:16:21.684Z,1.37
2023-03-07T05:19:25.287Z,1.35
2023-03-07T05:22:29.301Z,1.33
2023-03-07T05:25:32.881Z,1.39
2023-03-07T05:28:36.554Z,1.44
2023-03-07T05:31:41.575Z,1.37
2023-03-07T05:34:47.040Z,1.37
2023-03-07T05:37:50.863Z,1.37
2023-03-07T05:40:54.487Z,1.36
2023-03-07T05:43:58.417Z,1.35
2023-03-07T05:47:03.360Z,1.34
2023-03-07T05:50:09.303Z,1.29
2023-03-07T05:53:12.977Z,1.28
2023-03-07T05:56:16.775Z,1.30
2023-03-07T05:59:20.702Z,1.26
2023-03-07T06:02:25.794Z,1.25
2023-03-07T06:05:29.645Z,1.22
2023-03-07T06:08:33.421Z,1.29
2023-03-07T06:11:37.032Z,1.31
2023-03-07T06:14:40.835Z,1.29
2023-03-07T06:17:45.810Z,1.33
2023-03-07T06:20:58.681Z,1.41
2023-03-07T06:24:02.319Z,1.44
2023-03-07T06:27:06.406Z,1.46
2023-03-07T06:30:12.103Z,1.54
2023-03-07T06:33:17.522Z,1.56
2023-03-07T06:36:22.289Z,1.58
2023-03-07T06:39:27.936Z,1.56
2023-03-07T06:42:32.277Z,1.54
2023-03-07T06:45:36.149Z,1.57
2023-03-07T06:48:41.208Z,1.67
2023-03-07T06:51:44.985Z,1.66
2023-03-07T06:54:51.366Z,1.74
2023-03-07T06:57:55.204Z,1.74
2023-03-07T07:00:58.845Z,1.74
2023-03-07T07:04:03.946Z,1.78
2023-03-07T07:07:08.259Z,1.77
2023-03-07T07:10:13.403Z,1.80
2023-03-07T07:13:17.005Z,1.79
2023-03-07T07:16:20.890Z,1.91
2023-03-07T07:19:26.618Z,1.95
2023-03-07T07:22:30.233Z,1.94
2023-03-07T07:25:33.960Z,1.91
2023-03-07T07:28:37.782Z,1.92
2023-03-07T07:31:41.466Z,2.06
2023-03-07T07:34:46.749Z,2.04
2023-03-07T07:37:50.446Z,2.13
2023-03-07T07:40:54.051Z,2.13
2023-03-07T07:43:57.654Z,2.17
2023-03-07T07:47:02.654Z,2.19
2023-03-07T07:50:09.201Z,2.17
2023-03-07T07:53:12.796Z,2.11
2023-03-07T07:56:16.501Z,2.06
2023-03-07T07:59:20.480Z,2.07
2023-03-07T08:02:24.450Z,2.07
2023-03-07T08:05:29.751Z,2.05
2023-03-07T08:08:33.412Z,2.00
2023-03-07T08:11:37.288Z,2.02
2023-03-07T08:14:41.187Z,1.99
2023-03-07T08:17:45.342Z,2.02
2023-03-07T08:20:50.418Z,1.95
2023-03-07T08:23:55.572Z,2.00
2023-03-07T08:26:59.221Z,2.08
2023-03-07T08:30:03.372Z,2.09
2023-03-07T08:33:07.488Z,2.21
2023-03-07T08:36:12.552Z,2.28
2023-03-07T08:39:16.216Z,2.33
2023-03-07T08:42:20.497Z,2.33
2023-03-07T08:45:42.220Z,2.27
2023-03-07T08:48:45.947Z,2.40
2023-03-07T08:51:51.392Z,2.47
2023-03-07T08:54:55.284Z,2.68
2023-03-07T08:57:58.945Z,2.74
2023-03-07T09:01:02.944Z,2.65
2023-03-07T09:04:06.854Z,2.68
2023-03-07T09:07:11.901Z,2.70
2023-03-07T09:10:17.263Z,2.40
2023-03-07T09:13:21.381Z,2.12
2023-03-07T09:16:25.151Z,2.21
2023-03-07T09:19:28.764Z,2.22
2023-03-07T09:22:34.054Z,2.17
2023-03-07T09:25:39.790Z,2.03
2023-03-07T09:28:43.409Z,1.75
2023-03-07T09:31:47.228Z,1.67
2023-03-07T09:34:50.886Z,1.61
2023-03-07T09:37:55.904Z,1.64
2023-03-07T09:41:11.312Z,1.67
2023-03-07T09:44:33.510Z,1.30
2023-03-07T09:48:12.266Z,1.63
2023-03-07T09:51:24.033Z,1.91
2023-03-07T09:54:41.123Z,2.12
2023-03-07T09:57:52.078Z,2.25
2023-03-07T10:01:01.646Z,2.27
2023-03-07T10:04:08.370Z,2.37
2023-03-07T10:07:16.512Z,2.51
2023-03-07T10:10:26.604Z,2.66
2023-03-07T10:13:51.361Z,2.91
2023-03-07T10:17:09.609Z,3.06
2023-03-07T10:20:25.568Z,3.15
2023-03-07T10:23:51.781Z,3.03
2023-03-07T10:27:04.342Z,3.28
2023-03-07T10:30:17.968Z,3.32
2023-03-07T10:33:22.381Z,3.18
2023-03-07T10:36:40.657Z,3.23
2023-03-07T10:39:51.917Z,3.09
2023-03-07T10:42:58.889Z,3.08
2023-03-07T10:46:24.696Z,3.17
2023-03-07T10:49:32.931Z,3.18
2023-03-07T10:52:41.673Z,3.25
2023-03-07T10:55:46.813Z,3.27
2023-03-07T10:59:07.217Z,3.36
2023-03-07T11:02:33.192Z,3.36
2023-03-07T11:05:37.505Z,3.69
2023-03-07T11:08:46.691Z,3.50
2023-03-07T11:11:57.965Z,3.35
2023-03-07T11:15:21.684Z,3.42
2023-03-07T11:18:38.136Z,3.26
2023-03-07T11:21:41.891Z,3.21
2023-03-07T11:24:54.294Z,3.16
2023-03-07T11:27:59.759Z,3.14
2023-03-07T11:31:16.217Z,3.13
2023-03-07T11:34:35.249Z,3.03
2023-03-07T11:37:44.813Z,2.99
2023-03-07T11:40:58.266Z,3.02
2023-03-07T11:44:35.632Z,3.13
2023-03-07T11:48:00.535Z,3.20
2023-03-07T11:51:06.584Z,3.30
2023-03-07T11:54:26.855Z,3.27
2023-03-07T11:57:54.217Z,3.28
2023-03-07T12:01:17.199Z,3.24
2023-03-07T12:05:01.466Z,3.28
2023-03-07T12:08:38.750Z,3.68
2023-03-07T12:12:14.038Z,3.44
2023-03-07T12:15:36.426Z,3.44
2023-03-07T12:19:14.458Z,3.57
2023-03-07T12:22:28.955Z,3.57
2023-03-07T12:25:38.930Z,3.63
2023-03-07T12:28:51.114Z,3.76
2023-03-07T12:32:01.099Z,3.76
2023-03-07T12:35:23.051Z,3.65
2023-03-07T12:38:40.917Z,3.71
2023-03-07T12:41:57.766Z,3.71
2023-03-07T12:45:09.407Z,3.42
2023-03-07T12:48:24.578Z,3.46
2023-03-07T12:51:35.205Z,3.50
2023-03-07T12:54:50.337Z,3.53
2023-03-07T12:58:05.755Z,3.64
2023-03-07T13:01:16.914Z,3.69
2023-03-07T13:04:29.374Z,3.85
2023-03-07T13:07:35.882Z,3.88
2023-03-07T13:10:40.978Z,4.10
2023-03-07T13:13:58.515Z,4.31
2023-03-07T13:17:02.369Z,4.60
2023-03-07T13:20:39.552Z,4.40
2023-03-07T13:23:43.147Z,4.45
2023-03-07T13:26:55.169Z,4.96
2023-03-07T13:30:22.092Z,4.74
2023-03-07T13:33:30.137Z,4.55
2023-03-07T13:36:37.989Z,4.19
2023-03-07T13:40:03.258Z,3.76
2023-03-07T13:44:02.455Z,3.60
2023-03-07T13:47:06.630Z,3.45
2023-03-07T13:50:40.517Z,3.47
2023-03-07T13:53:47.506Z,3.49
2023-03-07T13:56:52.301Z,3.44
2023-03-07T13:59:57.632Z,3.51
2023-03-07T14:03:02.609Z,3.55
2023-03-07T14:06:18.467Z,3.80
2023-03-07T14:09:30.773Z,4.00
2023-03-07T14:12:52.115Z,4.03
2023-03-07T14:16:28.996Z,4.20
2023-03-07T14:19:55.528Z,4.08
2023-03-07T14:23:21.739Z,4.13
2023-03-07T14:26:33.514Z,3.91
2023-03-07T14:29:37.305Z,3.71
2023-03-07T14:32:42.662Z,3.62
2023-03-07T14:35:47.201Z,3.58
2023-03-07T14:38:55.709Z,3.55
2023-03-07T14:42:15.283Z,3.53
2023-03-07T14:45:32.465Z,3.70
2023-03-07T14:49:12.550Z,3.80
2023-03-07T14:52:30.322Z,3.81
2023-03-07T14:55:40.043Z,3.93
2023-03-07T14:58:52.303Z,4.00
2023-03-07T15:01:56.083Z,3.19
2023-03-07T15:05:01.440Z,2.77
2023-03-07T15:08:17.807Z,2.62
2023-03-07T15:11:34.004Z,2.52
2023-03-07T15:14:47.589Z,2.62
2023-03-07T15:17:52.622Z,2.64
2023-03-07T15:21:00.711Z,2.59
2023-03-07T15:24:04.723Z,2.72
2023-03-07T15:27:10.743Z,2.75
2023-03-07T15:30:27.549Z,2.74
2023-03-07T15:33:32.908Z,2.87
2023-03-07T15:36:38.296Z,3.00
2023-03-07T15:39:41.991Z,3.04
2023-03-07T15:42:51.566Z,3.20
2023-03-07T15:46:07.762Z,3.17
2023-03-07T15:49:26.588Z,3.19
2023-03-07T15:52:34.949Z,3.09
2023-03-07T15:55:40.570Z,3.01
2023-03-07T15:58:47.043Z,2.90
2023-03-07T16:01:50.694Z,2.81
2023-03-07T16:04:54.754Z,2.71
2023-03-07T16:08:00.059Z,2.66
2023-03-07T16:11:06.934Z,2.61
2023-03-07T16:14:25.354Z,2.70
2023-03-07T16:17:36.925Z,2.73
2023-03-07T16:20:40.632Z,2.72
2023-03-07T16:23:46.249Z,2.69
2023-03-07T16:26:50.556Z,2.70
2023-03-07T16:29:55.123Z,2.66
2023-03-07T16:32:58.865Z,2.58
2023-03-07T16:36:02.727Z,2.53
2023-03-07T16:39:07.781Z,2.45
2023-03-07T16:42:21.031Z,2.39
2023-03-07T16:45:28.789Z,2.27
2023-03-07T16:48:32.445Z,2.18
2023-03-07T16:51:36.091Z,2.04
2023-03-07T16:54:41.612Z,2.04
2023-03-07T16:57:47.576Z,1.96
2023-03-07T17:00:52.622Z,1.98
2023-03-07T17:03:56.711Z,2.00
2023-03-07T17:07:04.751Z,2.01
2023-03-07T17:10:12.309Z,2.09
2023-03-07T17:13:19.441Z,2.03
2023-03-07T17:16:23.521Z,1.99
2023-03-07T17:19:29.695Z,2.07
2023-03-07T17:22:33.493Z,1.98
2023-03-07T17:25:38.627Z,1.97
2023-03-07T17:28:42.314Z,1.90
2023-03-07T17:31:46.022Z,1.96
2023-03-07T17:34:49.677Z,1.81
2023-03-07T17:37:54.291Z,1.67
2023-03-07T17:40:59.343Z,1.50
2023-03-07T17:44:02.895Z,1.43
2023-03-07T17:47:06.840Z,1.29
2023-03-07T17:50:12.773Z,1.19
2023-03-07T17:53:16.383Z,1.14
2023-03-07T17:56:21.427Z,1.06
2023-03-07T17:59:25.214Z,0.99
2023-03-07T18:02:28.983Z,0.93
2023-03-07T18:05:33.048Z,0.87
2023-03-07T18:08:37.699Z,0.78
2023-03-07T18:11:42.652Z,0.70
2023-03-07T18:14:46.346Z,0.63
2023-03-07T18:17:50.818Z,0.64
2023-03-07T18:20:59.078Z,0.57
2023-03-07T18:24:02.962Z,0.49
2023-03-07T18:27:08.738Z,0.39
2023-03-07T18:30:14.412Z,0.36
2023-03-07T18:33:18.078Z,0.27
2023-03-07T18:36:25.681Z,0.34
2023-03-07T18:39:29.392Z,0.25
2023-03-07T18:42:34.510Z,0.25
2023-03-07T18:45:38.230Z,0.21
2023-03-07T18:48:42.048Z,0.22
2023-03-07T18:51:46.220Z,0.25
2023-03-07T18:54:50.151Z,0.26
2023-03-07T18:57:55.374Z,0.22
2023-03-07T19:00:59.084Z,0.17
2023-03-07T19:04:05.638Z,0.13
2023-03-07T19:07:09.232Z,0.08
2023-03-07T19:10:13.707Z,0.07
2023-03-07T19:13:18.668Z,0.02
2023-03-07T19:16:26.408Z,-0.02
2023-03-07T19:19:30.171Z,-0.06
2023-03-07T19:22:33.930Z,-0.10
2023-03-07T19:25:37.715Z,-0.19
2023-03-07T19:28:43.037Z,-0.22
2023-03-07T19:31:46.670Z,-0.19
2023-03-07T19:34:51.381Z,-0.16
2023-03-07T19:37:54.990Z,-0.16
2023-03-07T19:40:59.225Z,-0.18
2023-03-07T19:44:06.514Z,-0.23
2023-03-07T19:47:10.179Z,-0.29
2023-03-07T19:50:14.224Z,-0.27
2023-03-07T19:53:18.239Z,-0.31
2023-03-07T19:56:25.299Z,-0.37
2023-03-07T19:59:30.511Z,-0.36
2023-03-07T20:02:34.242Z,-0.40
2023-03-07T20:05:42.951Z,-0.45
2023-03-07T20:08:49.272Z,-0.48
2023-03-07T20:11:52.905Z,-0.52
2023-03-07T20:14:57.984Z,-0.52
2023-03-07T20:18:05.743Z,-0.50
2023-03-07T20:21:12.795Z,-0.57
2023-03-07T20:24:16.801Z,-0.59
2023-03-07T20:27:23.465Z,-0.59
2023-03-07T20:30:28.728Z,-0.64
2023-03-07T20:33:32.603Z,-0.69
2023-03-07T20:36:38.513Z,-0.68
2023-03-07T20:39:43.780Z,-0.66
2023-03-07T20:42:47.409Z,-0.69
2023-03-07T20:45:52.386Z,-0.67
2023-03-07T20:48:57.599Z,-0.68
2023-03-07T20:52:01.166Z,-0.73
2023-03-07T20:55:05.672Z,-0.77
2023-03-07T20:58:09.283Z,-0.81
2023-03-07T21:01:17.110Z,-0.83
2023-03-07T21:04:21.312Z,-0.79
2023-03-07T21:07:25.069Z,-0.89
2023-03-07T21:10:28.825Z,-0.92
2023-03-07T21:13:34.963Z,-0.93
2023-03-07T21:16:40.579Z,-0.91
2023-03-07T21:19:44.206Z,-0.97
2023-03-07T21:22:47.841Z,-0.94
2023-03-07T21:25:51.474Z,-0.99
2023-03-07T21:28:56.814Z,-0.99
2023-03-07T21:32:01.791Z,-1.07
2023-03-07T21:35:06.211Z,-1.06
2023-03-07T21:38:09.874Z,-1.07
2023-03-07T21:41:14.576Z,-1.04
2023-03-07T21:44:18.683Z,-1.10
2023-03-07T21:47:23.777Z,-1.15
2023-03-07T21:50:27.692Z,-1.18
2023-03-07T21:53:32.349Z,-1.18
2023-03-07T21:56:36.052Z,-1.27
2023-03-07T21:59:40.389Z,-1.28
2023-03-07T22:02:45.795Z,-1.27
2023-03-07T22:05:49.683Z,-1.29
2023-03-07T22:08:53.473Z,-1.37
2023-03-07T22:11:57.262Z,-1.36
2023-03-07T22:15:01.038Z,-1.38
2023-03-07T22:18:06.226Z,-1.34
2023-03-07T22:21:13.690Z,-1.36
2023-03-07T22:24:17.312Z,-1.36
2023-03-07T22:27:21.289Z,-1.35
2023-03-07T22:30:24.898Z,-1.44
2023-03-07T22:33:30.022Z,-1.47
2023-03-07T22:36:33.679Z,-1.43
2023-03-07T22:39:37.568Z,-1.49
2023-03-07T22:42:41.192Z,-1.48
2023-03-07T22:45:50.779Z,-1.52
2023-03-07T22:48:57.479Z,-1.53
2023-03-07T22:52:01.200Z,-1.52
2023-03-07T22:55:05.530Z,-1.52
2023-03-07T22:58:09.539Z,-1.54
2023-03-07T23:01:15.802Z,-1.54
2023-03-07T23:04:20.787Z,-1.54
2023-03-07T23:07:24.718Z,-1.60
2023-03-07T23:10:29.924Z,-1.60
2023-03-07T23:13:35.156Z,-1.64
2023-03-07T23:16:39.503Z,-1.63
2023-03-07T23:19:44.559Z,-1.65
2023-03-07T23:22:48.461Z,-1.71
2023-03-07T23:25:52.095Z,-1.67
2023-03-07T23:28:56.638Z,-1.65
2023-03-07T23:32:03.684Z,-1.67
2023-03-07T23:35:09.892Z,-1.68
2023-03-07T23:38:15.062Z,-1.69
2023-03-07T23:41:18.677Z,-1.71
2023-03-07T23:44:22.300Z,-1.70
2023-03-07T23:47:25.956Z,-1.72
2023-03-07T23:50:30.953Z,-1.68
2023-03-07T23:53:34.654Z,-1.73
2023-03-07T23:56:38.290Z,-1.67
2023-03-07T23:59:41.910Z,-1.70
